Time;durP1;ratioP1;P1;durP2;ratioP2;P2;SDS_P1;SDS_P2;PMS_P1;PMS_P2;Temp;Humidity;BMP_temperature;BMP_pressure;BME280_temperature;BME280_humidity;BME280_pressure;Samples;Min_cycle;Max_cycle;Signal;HPM_P1;HPM_P2
2021/05/19 00:00:37;;;;;;;9.00;7.15;;;15.80;99.40;;;;;;5053581;28;20099;-78
2021/05/19 00:03:03;;;;;;;10.05;7.10;;;15.70;99.40;;;;;;5035582;28;20028;-79
2021/05/19 00:05:29;;;;;;;7.93;7.00;;;15.70;99.40;;;;;;5035612;28;20029;-78
2021/05/19 00:07:54;;;;;;;8.07;7.15;;;15.60;99.50;;;;;;5053322;28;20139;-79
2021/05/19 00:10:20;;;;;;;9.93;7.57;;;15.60;99.80;;;;;;5053160;28;20804;-79
2021/05/19 00:12:46;;;;;;;10.07;7.80;;;15.60;99.50;;;;;;5052920;28;20378;-78
2021/05/19 00:15:12;;;;;;;7.82;6.85;;;15.60;99.50;;;;;;5053370;28;20466;-79
2021/05/19 00:17:45;;;;;;;8.18;7.25;;;15.50;99.50;;;;;;5053171;28;20051;-78
2021/05/19 00:20:13;;;;;;;8.52;7.68;;;15.50;99.50;;;;;;5035408;28;20029;-79
2021/05/19 00:22:39;;;;;;;7.10;6.40;;;15.50;99.50;;;;;;5052490;28;20100;-78
2021/05/19 00:25:05;;;;;;;8.38;6.80;;;15.40;99.50;;;;;;5052380;28;20411;-78
2021/05/19 00:27:31;;;;;;;8.13;7.28;;;15.40;99.50;;;;;;5052269;28;20033;-78
2021/05/19 00:29:57;;;;;;;8.00;7.20;;;15.40;99.50;;;;;;5035304;28;20051;-79
2021/05/19 00:32:23;;;;;;;8.85;7.95;;;15.40;99.50;;;;;;5034977;28;20017;-78
2021/05/19 00:34:49;;;;;;;8.25;7.18;;;15.40;99.50;;;;;;5052838;28;20025;-78
2021/05/19 00:37:18;;;;;;;7.05;6.35;;;15.40;99.50;;;;;;5051829;28;20032;-79
2021/05/19 00:39:44;;;;;;;7.60;6.68;;;15.30;99.40;;;;;;5053414;28;20439;-78
2021/05/19 00:42:14;;;;;;;7.95;7.15;;;15.30;99.30;;;;;;5055668;28;20021;-79
2021/05/19 00:44:40;;;;;;;8.55;7.70;;;15.20;99.30;;;;;;5038777;28;20036;-79
2021/05/19 00:47:06;;;;;;;9.32;8.30;;;15.20;99.20;;;;;;5056738;28;20036;-79
2021/05/19 00:49:32;;;;;;;8.95;8.05;;;15.10;99.20;;;;;;5056541;28;20398;-79
2021/05/19 00:51:58;;;;;;;11.88;8.30;;;15.10;99.20;;;;;;5056695;28;20103;-79
2021/05/19 00:54:24;;;;;;;11.23;8.77;;;15.00;99.20;;;;;;5056347;28;20021;-78
2021/05/19 00:56:51;;;;;;;10.15;7.88;;;15.00;99.20;;;;;;5056421;28;20028;-79
2021/05/19 00:59:17;;;;;;;10.27;8.27;;;15.00;99.20;;;;;;5038722;28;20107;-79
2021/05/19 01:01:43;;;;;;;9.95;8.45;;;14.90;99.20;;;;;;5056619;28;20025;-79
2021/05/19 01:04:09;;;;;;;9.48;8.25;;;14.90;99.20;;;;;;5038693;28;20025;-79
2021/05/19 01:11:49;;;;;;;9.07;7.53;;;14.80;99.10;;;;;;5056265;28;20044;-79
2021/05/19 01:14:15;;;;;;;9.65;8.00;;;14.70;99.10;;;;;;5038617;28;20387;-79
2021/05/19 01:16:41;;;;;;;9.07;7.45;;;14.70;99.10;;;;;;5055123;28;20063;-79
2021/05/19 01:19:07;;;;;;;8.20;6.95;;;14.60;99.20;;;;;;5038108;28;20553;-78
2021/05/19 01:21:35;;;;;;;9.35;7.90;;;14.60;99.20;;;;;;5056089;28;20025;-79
2021/05/19 01:24:05;;;;;;;10.23;8.70;;;14.60;99.20;;;;;;5038208;28;20501;-79
2021/05/19 01:26:32;;;;;;;14.80;7.95;;;14.50;99.20;;;;;;5055974;28;20024;-78
2021/05/19 01:28:59;;;;;;;12.40;8.98;;;14.50;99.20;;;;;;5055853;28;20017;-79
2021/05/19 01:31:24;;;;;;;15.18;10.38;;;14.50;99.30;;;;;;5055953;28;20104;-79
2021/05/19 01:33:50;;;;;;;17.83;11.18;;;14.50;99.30;;;;;;5038123;28;20052;-79
2021/05/19 01:36:17;;;;;;;17.30;10.82;;;14.40;99.30;;;;;;5055742;28;20020;-79
2021/05/19 01:38:44;;;;;;;22.27;13.40;;;14.40;99.50;;;;;;5055752;28;20087;-79
2021/05/19 01:41:10;;;;;;;18.98;12.57;;;14.50;99.80;;;;;;5055795;28;20028;-79
2021/05/19 01:43:37;;;;;;;13.95;11.23;;;14.50;99.90;;;;;;5055661;28;20021;-79
2021/05/19 01:46:03;;;;;;;11.77;9.98;;;14.50;99.90;;;;;;5055593;28;20031;-78
2021/05/19 01:48:31;;;;;;;11.57;9.30;;;14.60;99.90;;;;;;5055665;28;20029;-79
2021/05/19 01:50:58;;;;;;;33.80;17.23;;;14.70;99.90;;;;;;5055600;28;20028;-80
2021/05/19 01:53:28;;;;;;;43.13;20.98;;;14.70;99.90;;;;;;5055220;28;20083;-80
2021/05/19 01:55:55;;;;;;;57.60;28.35;;;14.80;99.90;;;;;;5055475;28;20021;-79
2021/05/19 01:58:21;;;;;;;52.72;27.73;;;14.80;99.90;;;;;;5037609;28;20041;-79
2021/05/19 02:00:47;;;;;;;46.17;27.33;;;14.80;99.90;;;;;;5055582;28;20025;-80
2021/05/19 02:03:13;;;;;;;53.58;30.48;;;14.90;99.90;;;;;;5055258;28;20386;-79
2021/05/19 02:05:39;;;;;;;41.80;25.95;;;14.90;99.90;;;;;;5055694;28;20029;-79
2021/05/19 02:08:07;;;;;;;50.03;28.02;;;14.90;99.90;;;;;;5055243;28;20462;-79
2021/05/19 02:10:34;;;;;;;58.88;31.75;;;14.90;99.90;;;;;;5037060;28;20048;-79
2021/05/19 02:13:02;;;;;;;52.30;29.50;;;14.90;99.90;;;;;;5055247;28;20049;-79
2021/05/19 02:15:28;;;;;;;51.85;30.00;;;15.00;99.90;;;;;;5037164;28;20025;-80
2021/05/19 02:17:54;;;;;;;57.47;28.83;;;15.00;99.90;;;;;;5055044;28;20029;-80
2021/05/19 02:20:21;;;;;;;52.85;29.60;;;15.10;99.90;;;;;;5055169;28;20467;-79
2021/05/19 02:22:48;;;;;;;64.13;33.05;;;15.10;99.90;;;;;;5054869;28;20075;-79
2021/05/19 02:25:14;;;;;;;53.92;29.48;;;15.10;99.90;;;;;;5036910;28;20021;-79
2021/05/19 02:27:40;;;;;;;51.78;29.02;;;15.20;99.90;;;;;;5054630;28;20108;-79
2021/05/19 02:30:09;;;;;;;50.47;26.77;;;15.20;99.80;;;;;;5037058;28;20057;-79
2021/05/19 02:32:36;;;;;;;51.03;26.67;;;15.20;99.80;;;;;;5054830;28;20021;-79
2021/05/19 02:35:03;;;;;;;49.88;29.00;;;15.30;99.80;;;;;;5054545;28;20501;-79
2021/05/19 02:37:28;;;;;;;58.17;31.45;;;15.30;99.70;;;;;;5054439;28;20386;-79
2021/05/19 02:39:54;;;;;;;57.08;32.13;;;15.30;99.70;;;;;;5054428;28;20025;-79
2021/05/19 02:42:20;;;;;;;54.70;32.53;;;15.40;99.60;;;;;;5054570;28;20025;-79
2021/05/19 02:44:45;;;;;;;47.95;29.15;;;15.40;99.60;;;;;;5036725;28;20075;-79
2021/05/19 02:47:11;;;;;;;44.33;30.15;;;15.40;99.60;;;;;;5054357;28;20029;-78
2021/05/19 02:49:37;;;;;;;40.42;28.25;;;15.40;99.50;;;;;;5036600;28;20024;-78
2021/05/19 02:52:03;;;;;;;38.03;26.42;;;15.50;99.50;;;;;;5054331;28;20029;-78
2021/05/19 02:54:28;;;;;;;36.55;25.05;;;15.50;99.50;;;;;;5036627;28;20045;-78
2021/05/19 02:56:54;;;;;;;34.35;24.13;;;15.50;99.40;;;;;;5036398;28;20095;-78
2021/05/19 02:59:20;;;;;;;33.25;22.80;;;15.60;99.40;;;;;;5054284;28;20032;-78
2021/05/19 03:01:47;;;;;;;36.60;23.00;;;15.60;99.40;;;;;;5036400;28;20032;-78
2021/05/19 03:04:13;;;;;;;28.58;20.65;;;15.60;99.40;;;;;;5053180;28;20020;-78
2021/05/19 03:06:38;;;;;;;32.35;22.38;;;15.70;99.30;;;;;;5054059;28;20396;-78
2021/05/19 03:09:05;;;;;;;35.78;23.20;;;15.60;99.00;;;;;;5036120;28;20029;-78
2021/05/19 03:11:31;;;;;;;36.70;24.27;;;15.60;98.90;;;;;;5036197;28;20398;-78
2021/05/19 03:13:57;;;;;;;34.05;23.58;;;15.60;98.80;;;;;;5054222;28;20079;-78
2021/05/19 03:16:23;;;;;;;39.63;25.60;;;15.50;98.90;;;;;;5054181;28;20021;-78
2021/05/19 03:18:49;;;;;;;43.13;26.70;;;15.50;99.10;;;;;;5036124;28;20032;-78
2021/05/19 03:21:15;;;;;;;49.92;28.73;;;15.60;99.30;;;;;;5053898;28;20025;-80
2021/05/19 03:23:41;;;;;;;57.58;30.88;;;15.50;99.20;;;;;;5036133;28;20483;-80
2021/05/19 03:26:07;;;;;;;52.40;29.75;;;15.60;99.20;;;;;;5053693;28;20104;-79
2021/05/19 03:28:33;;;;;;;51.35;30.73;;;15.60;99.20;;;;;;5035872;28;20056;-79
2021/05/19 03:30:59;;;;;;;49.38;29.80;;;15.60;99.30;;;;;;5035992;28;20064;-81
2021/05/19 03:33:25;;;;;;;50.05;27.85;;;15.70;99.40;;;;;;5035963;28;20423;-81
2021/05/19 03:35:51;;;;;;;27.90;18.02;;;15.70;99.50;;;;;;5035847;28;20391;-81
2021/05/19 03:38:17;;;;;;;19.30;13.98;;;15.70;99.50;;;;;;5035916;28;20487;-81
2021/05/19 03:40:44;;;;;;;16.65;11.63;;;15.80;99.40;;;;;;5035522;28;20082;-80
2021/05/19 03:43:09;;;;;;;13.38;9.63;;;15.90;99.40;;;;;;5053714;28;20471;-81
2021/05/19 03:45:35;;;;;;;11.15;9.85;;;16.00;99.30;;;;;;5053555;28;20040;-80
2021/05/19 03:48:06;;;;;;;10.73;9.27;;;16.00;99.10;;;;;;5053416;28;20021;-80
2021/05/19 03:50:33;;;;;;;13.00;10.45;;;16.00;99.20;;;;;;5053412;28;20785;-81
2021/05/19 03:53:01;;;;;;;10.82;9.70;;;16.10;99.20;;;;;;5053642;28;20108;-80
2021/05/19 03:55:28;;;;;;;12.63;9.48;;;16.10;99.00;;;;;;5035531;28;20025;-81
2021/05/19 03:57:54;;;;;;;12.45;9.70;;;16.10;99.10;;;;;;5053575;28;20083;-79
2021/05/19 04:00:27;;;;;;;14.07;10.18;;;16.10;99.00;;;;;;5054084;28;20025;-79
2021/05/19 04:02:53;;;;;;;31.10;17.48;;;16.10;99.00;;;;;;5035682;28;20032;-79
2021/05/19 04:05:26;;;;;;;39.97;20.02;;;16.20;98.90;;;;;;5054115;28;20025;-79
2021/05/19 04:07:53;;;;;;;37.03;18.25;;;16.20;98.80;;;;;;5053107;28;20067;-78
2021/05/19 04:10:20;;;;;;;35.10;18.10;;;16.30;98.80;;;;;;5053139;28;20052;-79
2021/05/19 04:12:49;;;;;;;39.33;19.77;;;16.30;98.70;;;;;;5053481;28;20094;-79
2021/05/19 04:15:20;;;;;;;43.00;20.13;;;16.30;98.70;;;;;;5036840;28;20486;-78
2021/05/19 04:17:46;;;;;;;43.13;19.55;;;16.30;98.50;;;;;;5056209;28;20783;-79
2021/05/19 04:20:13;;;;;;;39.10;18.60;;;16.30;98.50;;;;;;5057445;28;20029;-79
2021/05/19 04:22:38;;;;;;;40.42;20.25;;;16.40;98.70;;;;;;5057093;28;20033;-79
2021/05/19 04:25:06;;;;;;;34.25;18.23;;;16.50;98.50;;;;;;5039024;28;20028;-79
2021/05/19 04:27:31;;;;;;;43.53;20.60;;;16.50;98.50;;;;;;5038955;28;20048;-79
2021/05/19 04:29:57;;;;;;;67.50;29.23;;;16.60;98.40;;;;;;5057126;28;20478;-80
2021/05/19 04:32:23;;;;;;;64.40;28.90;;;16.50;98.10;;;;;;5057058;28;20377;-79
2021/05/19 04:34:48;;;;;;;66.55;29.10;;;16.50;97.90;;;;;;5050648;28;20021;-79
2021/05/19 04:37:14;;;;;;;59.78;25.63;;;16.50;97.80;;;;;;5057048;28;20025;-79
2021/05/19 04:39:40;;;;;;;50.38;24.77;;;16.40;97.90;;;;;;5039261;28;20108;-80
2021/05/19 04:42:06;;;;;;;45.55;22.52;;;16.40;98.10;;;;;;5056981;28;20386;-80
2021/05/19 04:44:31;;;;;;;35.35;18.23;;;16.40;98.10;;;;;;5055640;28;20029;-81
2021/05/19 04:46:57;;;;;;;33.50;17.90;;;16.40;98.10;;;;;;5056850;28;20035;-84
2021/05/19 04:49:23;;;;;;;40.10;18.33;;;16.50;98.10;;;;;;5056657;28;20027;-81
2021/05/19 04:51:49;;;;;;;36.80;16.88;;;16.50;98.00;;;;;;5056716;28;20029;-80
2021/05/19 04:54:14;;;;;;;50.08;21.98;;;16.50;98.00;;;;;;5038726;28;20021;-80
2021/05/19 04:56:40;;;;;;;60.28;24.23;;;16.50;97.90;;;;;;5056511;28;20068;-80
2021/05/19 04:59:06;;;;;;;35.30;15.93;;;16.60;97.90;;;;;;5056541;28;20029;-80
2021/05/19 05:01:32;;;;;;;17.73;11.90;;;16.60;97.90;;;;;;5056545;28;20108;-83
2021/05/19 05:03:58;;;;;;;13.70;9.23;;;16.70;97.80;;;;;;5056463;28;20032;-80
2021/05/19 05:06:24;;;;;;;9.07;8.15;;;16.70;97.60;;;;;;5056598;28;20021;-92
2021/05/19 05:08:50;;;;;;;8.50;7.60;;;16.80;97.40;;;;;;5038665;28;20498;-87
2021/05/19 05:11:16;;;;;;;10.10;8.57;;;16.70;97.40;;;;;;5038535;28;20045;-80
2021/05/19 05:13:42;;;;;;;8.35;7.55;;;16.70;97.40;;;;;;5038578;28;20468;-81
2021/05/19 05:16:08;;;;;;;8.07;7.28;;;16.70;97.40;;;;;;5055216;28;20028;-80
2021/05/19 05:18:39;;;;;;;11.68;7.25;;;16.70;97.40;;;;;;5056311;28;20509;-80
2021/05/19 05:21:05;;;;;;;8.82;6.47;;;16.80;97.60;;;;;;5056273;28;20418;-79
2021/05/19 05:23:31;;;;;;;8.85;5.88;;;16.80;97.20;;;;;;5038449;28;20032;-80
2021/05/19 05:26:01;;;;;;;8.43;6.55;;;16.90;97.10;;;;;;5037894;28;20057;-81
2021/05/19 05:28:27;;;;;;;5.80;5.20;;;16.90;97.10;;;;;;5056038;28;20103;-82
2021/05/19 05:30:53;;;;;;;6.13;5.53;;;16.90;97.10;;;;;;5056077;28;20110;-83
2021/05/19 05:33:19;;;;;;;5.88;5.13;;;16.90;97.20;;;;;;5056189;28;20029;-84
2021/05/19 05:35:45;;;;;;;6.05;5.40;;;16.90;97.40;;;;;;5055340;28;20025;-91
2021/05/19 05:38:10;;;;;;;6.63;5.30;;;17.00;97.00;;;;;;5056910;28;20475;-93
2021/05/19 05:40:36;;;;;;;10.98;5.78;;;17.10;97.00;;;;;;5055362;28;20071;-87
2021/05/19 05:43:03;;;;;;;8.13;6.32;;;17.10;96.90;;;;;;5038249;28;20505;-88
2021/05/19 05:45:29;;;;;;;6.63;5.93;;;17.10;96.50;;;;;;5038647;28;20056;-86
2021/05/19 05:47:56;;;;;;;5.78;5.00;;;17.20;97.00;;;;;;5038853;28;20079;-90
2021/05/19 05:50:22;;;;;;;7.72;4.85;;;17.20;97.00;;;;;;5038915;28;20025;-87
2021/05/19 05:52:48;;;;;;;8.00;4.90;;;17.30;97.00;;;;;;5038378;28;20104;-88
2021/05/19 05:55:14;;;;;;;5.78;4.88;;;17.40;97.00;;;;;;5055957;28;20445;-90
2021/05/19 05:57:39;;;;;;;5.85;4.65;;;17.60;96.90;;;;;;5038836;28;20028;-94
2021/05/19 06:00:07;;;;;;;5.90;4.70;;;17.70;96.60;;;;;;5038729;28;20391;-88
2021/05/19 06:02:33;;;;;;;5.10;4.13;;;17.70;96.50;;;;;;5055907;28;20052;-88
2021/05/19 06:04:59;;;;;;;6.72;4.65;;;17.80;96.50;;;;;;5038289;28;20025;-92
2021/05/19 06:07:24;;;;;;;6.00;4.60;;;17.90;96.30;;;;;;5039202;28;20029;-87
2021/05/19 06:09:52;;;;;;;4.40;4.00;;;17.90;96.20;;;;;;5038420;28;20511;-88
2021/05/19 06:12:18;;;;;;;4.40;3.70;;;18.00;95.90;;;;;;5054703;28;20108;-86
2021/05/19 06:14:44;;;;;;;6.43;4.10;;;18.00;95.90;;;;;;5037930;28;20373;-90
2021/05/19 06:17:11;;;;;;;5.63;4.57;;;18.10;96.00;;;;;;5054886;28;20108;-93
2021/05/19 06:19:37;;;;;;;6.30;4.40;;;18.20;95.60;;;;;;5038268;28;20029;-92
2021/05/19 06:22:03;;;;;;;5.30;4.28;;;18.20;95.60;;;;;;5038623;28;20079;-96
2021/05/19 06:24:28;;;;;;;7.72;4.20;;;18.20;95.50;;;;;;5038653;28;20434;-90
2021/05/19 06:26:54;;;;;;;4.30;3.67;;;18.20;95.10;;;;;;5055569;28;20031;-94
2021/05/19 06:29:21;;;;;;;3.60;3.30;;;18.30;95.30;;;;;;5038703;28;20348;-93
2021/05/19 06:31:47;;;;;;;3.45;3.15;;;18.30;95.30;;;;;;5037818;28;20383;-91
2021/05/19 06:34:13;;;;;;;3.88;3.42;;;18.30;95.10;;;;;;5038652;28;20025;-94
2021/05/19 06:36:43;;;;;;;5.28;3.60;;;18.30;95.10;;;;;;5038245;28;20025;-92
2021/05/19 06:39:09;;;;;;;;;;;18.30;94.70;;;;;;5054700;28;20036;-94
2021/05/19 06:41:34;;;;;;;6.35;3.53;;;18.30;94.90;;;;;;5037585;28;19904;-91
2021/05/19 06:44:00;;;;;;;5.47;4.05;;;18.20;94.80;;;;;;5039773;28;20048;-93
2021/05/19 06:46:26;;;;;;;6.90;4.22;;;18.20;94.80;;;;;;5037699;28;20025;-92
2021/05/19 06:48:52;;;;;;;8.73;4.35;;;18.20;94.80;;;;;;5037796;28;20035;-91
2021/05/19 06:51:18;;;;;;;8.35;4.00;;;18.20;95.00;;;;;;5037399;28;20128;-94
2021/05/19 06:53:43;;;;;;;3.85;3.20;;;18.20;95.00;;;;;;5037539;28;20144;-86
2021/05/19 06:56:09;;;;;;;3.60;2.60;;;18.30;95.10;;;;;;5037521;28;20086;-92
2021/05/19 06:58:35;;;;;;;4.85;3.20;;;18.30;94.90;;;;;;5037438;28;20029;-90
2021/05/19 07:01:01;;;;;;;20.70;9.93;;;18.40;94.90;;;;;;5037034;28;20036;-91
2021/05/19 07:03:26;;;;;;;22.98;12.65;;;18.40;94.50;;;;;;5037607;28;20028;-86
2021/05/19 07:05:52;;;;;;;16.10;10.70;;;18.50;94.60;;;;;;5037196;28;20404;-89
2021/05/19 07:08:21;;;;;;;9.32;6.13;;;18.60;94.60;;;;;;5037076;28;20363;-91
2021/05/19 07:10:46;;;;;;;5.28;4.78;;;18.60;94.40;;;;;;5037154;28;20070;-91
2021/05/19 07:13:16;;;;;;;5.10;3.45;;;18.70;94.40;;;;;;5037310;28;20041;-88
2021/05/19 07:15:42;;;;;;;3.38;3.10;;;18.80;94.30;;;;;;5036839;28;20079;-81
2021/05/19 07:18:11;;;;;;;4.20;3.78;;;18.70;93.70;;;;;;5054702;28;20033;-94
2021/05/19 07:20:37;;;;;;;4.10;3.15;;;18.80;93.80;;;;;;5037151;28;20025;-90
2021/05/19 07:23:03;;;;;;;2.72;2.50;;;18.90;93.90;;;;;;5037008;28;20494;-93
2021/05/19 07:25:29;;;;;;;3.88;3.20;;;18.90;93.70;;;;;;5037698;28;20115;-88
2021/05/19 07:27:54;;;;;;;4.03;3.10;;;19.10;93.70;;;;;;5055312;28;20046;-91
2021/05/19 07:30:20;;;;;;;3.20;2.90;;;19.00;93.30;;;;;;5036767;28;20024;-91
2021/05/19 07:32:46;;;;;;;6.40;3.95;;;19.00;93.50;;;;;;5036694;28;20025;-89
2021/05/19 07:35:13;;;;;;;4.95;3.47;;;19.10;93.50;;;;;;5053150;28;20033;-86
2021/05/19 07:37:39;;;;;;;2.92;2.70;;;19.20;93.30;;;;;;5036337;28;20032;-89
2021/05/19 07:40:05;;;;;;;9.18;5.22;;;19.30;93.20;;;;;;5054385;28;20370;-91
2021/05/19 07:42:31;;;;;;;10.07;6.32;;;19.30;93.10;;;;;;5054459;28;20029;-89
2021/05/19 07:44:57;;;;;;;6.32;4.20;;;19.40;93.00;;;;;;5053027;28;20094;-89
2021/05/19 07:47:23;;;;;;;3.65;3.03;;;19.40;92.80;;;;;;5036294;28;20025;-88
2021/05/19 07:49:49;;;;;;;5.03;2.28;;;19.50;93.00;;;;;;5053941;28;20487;-87
2021/05/19 07:52:14;;;;;;;3.55;2.45;;;19.50;92.80;;;;;;5036397;28;20031;-88
2021/05/19 07:54:40;;;;;;;3.38;2.22;;;19.50;92.80;;;;;;5054241;28;20021;-88
2021/05/19 07:57:17;;;;;;;4.18;2.70;;;19.50;92.80;;;;;;5036292;28;20025;-88
2021/05/19 07:59:45;;;;;;;3.38;2.88;;;19.50;92.80;;;;;;5036263;28;20124;-87
2021/05/19 08:02:12;;;;;;;3.03;2.72;;;19.50;92.70;;;;;;5036256;28;20021;-88
2021/05/19 08:04:39;;;;;;;4.28;2.90;;;19.50;92.90;;;;;;5036335;28;20021;-89
2021/05/19 08:07:06;;;;;;;4.65;3.00;;;19.50;92.70;;;;;;5036307;28;20017;-88
2021/05/19 08:09:32;;;;;;;3.17;2.85;;;19.50;92.90;;;;;;5054131;28;20044;-89
2021/05/19 08:11:59;;;;;;;4.30;2.90;;;19.60;92.60;;;;;;5036404;28;20028;-88
2021/05/19 08:14:30;;;;;;;2.85;2.60;;;19.70;92.60;;;;;;5035860;28;20481;-88
2021/05/19 08:16:57;;;;;;;3.40;3.10;;;19.70;92.40;;;;;;5036325;28;20021;-85
2021/05/19 08:19:22;;;;;;;3.97;2.63;;;19.60;92.00;;;;;;5035879;28;20029;-87
2021/05/19 08:21:48;;;;;;;5.13;2.78;;;19.50;92.00;;;;;;5036113;28;20382;-89
2021/05/19 08:24:14;;;;;;;2.92;2.70;;;19.30;92.00;;;;;;5035883;28;20033;-89
2021/05/19 08:26:41;;;;;;;3.17;2.63;;;19.20;92.40;;;;;;5053891;28;20550;-88
2021/05/19 08:29:07;;;;;;;6.03;3.28;;;19.20;92.80;;;;;;5035917;28;20414;-88
2021/05/19 08:31:33;;;;;;;3.58;2.42;;;19.10;92.80;;;;;;5036002;28;20028;-89
2021/05/19 08:33:58;;;;;;;3.17;2.33;;;19.10;92.90;;;;;;5052819;28;20029;-88
2021/05/19 08:37:00;;;;;;;4.70;2.28;;;19.10;93.20;;;;;;5036079;28;20025;-90
2021/05/19 08:39:26;;;;;;;4.50;2.58;;;19.10;93.30;;;;;;5035828;28;20463;-88
2021/05/19 08:41:52;;;;;;;3.17;2.55;;;19.10;93.00;;;;;;5035883;28;20025;-92
2021/05/19 08:44:19;;;;;;;2.97;2.70;;;19.10;93.20;;;;;;5053238;28;20090;-87
2021/05/19 08:46:52;;;;;;;4.35;2.80;;;19.10;93.40;;;;;;5035994;28;20032;-88
2021/05/19 08:49:18;;;;;;;3.60;2.80;;;19.20;93.50;;;;;;5035596;28;20115;-86
2021/05/19 08:51:44;;;;;;;3.38;2.78;;;19.30;93.40;;;;;;5053588;28;20415;-89
2021/05/19 08:54:10;;;;;;;2.72;2.30;;;19.30;93.60;;;;;;5053715;28;20075;-88
2021/05/19 08:56:41;;;;;;;2.80;2.60;;;19.40;93.50;;;;;;5035803;28;20058;-88
2021/05/19 08:59:08;;;;;;;3.58;2.30;;;19.40;93.20;;;;;;5053610;28;20033;-88
2021/05/19 09:01:42;;;;;;;3.60;2.28;;;19.40;93.00;;;;;;5055476;28;20032;-83
2021/05/19 09:04:16;;;;;;;2.67;2.13;;;19.40;92.70;;;;;;5057003;28;20380;-87
2021/05/19 09:06:43;;;;;;;3.20;2.45;;;19.40;92.50;;;;;;5057082;28;20101;-87
2021/05/19 09:09:31;;;;;;;3.15;2.22;;;19.30;92.60;;;;;;5039110;28;20029;-86
2021/05/19 09:12:05;;;;;;;2.85;2.40;;;19.30;92.90;;;;;;5055717;28;20044;-89
2021/05/19 09:14:43;;;;;;;3.45;2.70;;;19.20;92.50;;;;;;5039215;28;20112;-90
2021/05/19 09:17:18;;;;;;;3.65;3.17;;;19.20;92.60;;;;;;5039093;28;20021;-86
2021/05/19 09:19:45;;;;;;;5.32;3.60;;;19.00;92.30;;;;;;5038813;28;20490;-88
2021/05/19 09:22:23;;;;;;;4.78;4.13;;;18.90;92.60;;;;;;5039009;28;20483;-90
2021/05/19 09:24:51;;;;;;;6.63;4.35;;;18.90;92.60;;;;;;5056631;28;20025;-87
2021/05/19 09:27:17;;;;;;;6.78;4.20;;;18.80;93.20;;;;;;5056745;28;20024;-89
2021/05/19 09:29:51;;;;;;;4.88;4.18;;;18.70;93.10;;;;;;5039021;28;20032;-88
2021/05/19 09:32:18;;;;;;;4.80;4.25;;;18.60;93.20;;;;;;5056792;28;20021;-91
2021/05/19 09:34:52;;;;;;;5.32;4.25;;;18.60;93.40;;;;;;5039179;28;20025;-88
2021/05/19 09:37:26;;;;;;;4.88;3.88;;;18.50;93.30;;;;;;5039192;28;20025;-90
2021/05/19 09:39:59;;;;;;;5.35;4.20;;;18.40;93.40;;;;;;5038997;28;20116;-89
2021/05/19 09:42:35;;;;;;;6.80;4.05;;;18.40;93.50;;;;;;5039115;28;20025;-89
2021/05/19 09:45:33;;;;;;;5.65;3.72;;;18.30;93.40;;;;;;5039023;28;20028;-94
2021/05/19 09:48:00;;;;;;;5.97;4.50;;;18.20;93.40;;;;;;5039209;28;20055;-93
2021/05/19 09:50:58;;;;;;;6.57;4.78;;;18.10;93.10;;;;;;5038980;28;20474;-92
2021/05/19 09:53:32;;;;;;;4.13;3.63;;;18.00;93.70;;;;;;4996120;28;20029;-92
2021/05/19 09:55:58;;;;;;;5.30;3.80;;;17.90;93.80;;;;;;5038733;28;20031;-91
2021/05/19 09:58:30;;;;;;;5.90;5.30;;;17.80;93.90;;;;;;5038686;28;20107;-88
2021/05/19 10:00:57;;;;;;;6.82;5.15;;;17.80;93.90;;;;;;5038380;28;20075;-89
2021/05/19 10:03:22;;;;;;;6.55;5.30;;;17.80;94.10;;;;;;5038541;28;20119;-92
2021/05/19 10:05:54;;;;;;;9.10;7.00;;;17.80;94.30;;;;;;5038564;28;20102;-90
2021/05/19 10:08:20;;;;;;;13.63;9.45;;;17.80;94.40;;;;;;5038442;28;20028;-87
2021/05/19 10:10:46;;;;;;;13.48;9.45;;;17.80;94.60;;;;;;5037743;28;20051;-87
2021/05/19 10:13:13;;;;;;;13.30;9.77;;;17.90;94.90;;;;;;5037998;28;20115;-85
2021/05/19 10:15:40;;;;;;;12.50;10.48;;;18.00;94.90;;;;;;5055494;28;20016;-85
2021/05/19 10:18:08;;;;;;;13.90;10.65;;;18.10;94.90;;;;;;5037568;28;20378;-88
2021/05/19 10:20:41;;;;;;;14.55;10.75;;;18.30;94.60;;;;;;5037779;28;20544;-87
2021/05/19 10:23:09;;;;;;;13.68;10.27;;;18.40;94.50;;;;;;5054176;28;20056;-85
2021/05/19 10:25:40;;;;;;;10.95;9.50;;;18.60;94.60;;;;;;5037480;28;20025;-86
2021/05/19 10:28:18;;;;;;;12.27;10.40;;;18.80;94.50;;;;;;5037414;28;20032;-86
2021/05/19 10:30:52;;;;;;;13.30;10.38;;;19.00;94.00;;;;;;5037247;28;20147;-83
2021/05/19 10:33:29;;;;;;;14.50;10.80;;;19.20;94.00;;;;;;5055362;28;20021;-82
2021/05/19 10:36:00;;;;;;;11.68;10.07;;;19.30;93.60;;;;;;5055356;28;20059;-87
2021/05/19 10:38:34;;;;;;;14.88;11.68;;;19.30;93.40;;;;;;5037317;28;20036;-87
2021/05/19 10:41:02;;;;;;;14.60;10.77;;;19.40;93.40;;;;;;5037115;28;20029;-85
2021/05/19 10:43:47;;;;;;;15.38;10.75;;;19.40;93.30;;;;;;5053754;28;20029;-86
2021/05/19 10:46:17;;;;;;;12.45;10.88;;;19.40;93.30;;;;;;5054968;28;20023;-86
2021/05/19 10:48:52;;;;;;;13.55;9.57;;;19.40;93.20;;;;;;5055094;28;20112;-85
2021/05/19 10:51:42;;;;;;;10.88;8.18;;;19.40;93.20;;;;;;5036888;28;20037;-87
2021/05/19 11:00:28;;;;;;;12.00;7.90;;;19.50;92.90;;;;;;5054901;28;20079;-87
2021/05/19 11:03:04;;;;;;;9.95;8.10;;;19.60;92.90;;;;;;5054773;28;20497;-84
2021/05/19 11:05:58;;;;;;;10.30;8.25;;;19.70;93.10;;;;;;5054623;28;20488;-87
2021/05/19 11:08:27;;;;;;;10.93;8.07;;;19.80;92.70;;;;;;5028712;28;20033;-85
2021/05/19 11:11:14;;;;;;;10.07;8.73;;;19.90;92.60;;;;;;5036588;28;20049;-84
2021/05/19 11:13:55;;;;;;;10.95;7.75;;;20.00;92.50;;;;;;5036375;28;20029;-80
2021/05/19 11:16:26;;;;;;;12.35;8.95;;;20.10;92.20;;;;;;5036355;28;20501;-88
2021/05/19 11:19:19;;;;;;;10.70;8.80;;;20.10;91.80;;;;;;5036437;28;20182;-85
2021/05/19 11:21:44;;;;;;;11.38;8.52;;;20.10;91.90;;;;;;5054130;28;20540;-85
2021/05/19 11:24:13;;;;;;;10.82;7.63;;;20.00;91.70;;;;;;5053800;28;20029;-85
2021/05/19 11:26:43;;;;;;;10.80;8.30;;;20.00;91.60;;;;;;5036209;28;20478;-86
2021/05/19 11:29:11;;;;;;;8.98;8.05;;;19.90;91.40;;;;;;5053912;28;20062;-85
2021/05/19 11:31:41;;;;;;;13.32;8.75;;;19.90;91.50;;;;;;5053957;28;20021;-85
2021/05/19 11:34:07;;;;;;;9.43;7.80;;;19.80;91.70;;;;;;5036260;28;20048;-85
2021/05/19 11:36:47;;;;;;;10.60;7.45;;;19.80;92.00;;;;;;5035942;28;20033;-84
2021/05/19 11:39:39;;;;;;;9.90;7.88;;;19.90;91.90;;;;;;5054025;28;20104;-86
2021/05/19 11:42:20;;;;;;;8.13;6.78;;;19.90;91.70;;;;;;5036164;28;20394;-83
2021/05/19 11:44:50;;;;;;;10.65;7.55;;;19.90;91.50;;;;;;5036113;28;20029;-86
2021/05/19 11:47:21;;;;;;;8.85;7.13;;;19.90;91.40;;;;;;5036079;28;20029;-85
2021/05/19 11:49:46;;;;;;;10.10;7.25;;;19.80;91.50;;;;;;5035718;28;20120;-88
2021/05/19 11:52:12;;;;;;;10.05;7.15;;;19.90;91.70;;;;;;5052834;28;20121;-85
2021/05/19 11:54:42;;;;;;;10.23;7.15;;;19.90;91.60;;;;;;5036116;28;20028;-87
2021/05/19 11:57:10;;;;;;;10.02;7.38;;;19.90;91.50;;;;;;5035989;28;20021;-86
2021/05/19 11:59:38;;;;;;;9.57;7.15;;;19.90;91.50;;;;;;5053839;28;20017;-84
2021/05/19 12:02:10;;;;;;;8.85;7.20;;;19.90;91.60;;;;;;5053876;28;20052;-82
2021/05/19 12:04:39;;;;;;;9.65;7.68;;;19.90;91.50;;;;;;5053567;28;20017;-86
2021/05/19 12:07:07;;;;;;;9.90;7.20;;;19.90;91.40;;;;;;5035697;28;20412;-84
2021/05/19 12:09:42;;;;;;;8.05;6.45;;;20.00;91.40;;;;;;5035856;28;20049;-87
2021/05/19 12:12:16;;;;;;;10.15;6.45;;;20.10;91.10;;;;;;5035700;28;20025;-85
2021/05/19 12:14:56;;;;;;;9.50;6.93;;;20.10;91.10;;;;;;5035660;28;20029;-84
2021/05/19 12:17:25;;;;;;;8.18;6.55;;;20.40;90.60;;;;;;5035809;28;20591;-85
2021/05/19 12:19:51;;;;;;;9.27;6.10;;;20.90;91.80;;;;;;5035682;28;20421;-86
2021/05/19 12:22:21;;;;;;;6.93;5.30;;;21.80;91.70;;;;;;5053486;28;20344;-85
2021/05/19 12:24:48;;;;;;;8.25;5.55;;;23.10;90.80;;;;;;5053375;28;20024;-84
2021/05/19 12:27:21;;;;;;;8.73;5.18;;;24.30;88.50;;;;;;5035444;28;20071;-86
2021/05/19 12:29:50;;;;;;;8.07;5.20;;;25.30;82.80;;;;;;5035422;28;20029;-86
2021/05/19 12:32:19;;;;;;;6.78;4.43;;;26.20;81.80;;;;;;5053531;28;20351;-85
2021/05/19 12:34:46;;;;;;;;;;;27.00;80.20;;;;;;5035954;28;20025;-85
2021/05/19 12:37:12;;;;;;;7.18;4.72;;;27.70;78.10;;;;;;5056215;28;19987;-85
2021/05/19 12:39:42;;;;;;;9.73;4.20;;;28.30;74.00;;;;;;5039621;28;20027;-92
2021/05/19 12:42:20;;;;;;;7.53;3.53;;;28.90;71.70;;;;;;5045416;28;20115;-91
2021/05/19 12:44:57;;;;;;;4.82;3.50;;;29.60;70.30;;;;;;5058727;28;20131;-94
2021/05/19 12:47:24;;;;;;;8.57;4.35;;;30.20;68.50;;;;;;5078008;28;20059;-91
2021/05/19 12:49:58;;;;;;;6.63;3.85;;;30.60;65.40;;;;;;5060209;28;20025;-93
2021/05/19 12:52:24;;;;;;;5.13;3.47;;;31.00;62.20;;;;;;5060050;28;20020;-86
2021/05/19 12:54:54;;;;;;;6.70;3.90;;;31.20;60.80;;;;;;5077611;28;20025;-94
2021/05/19 12:57:28;;;;;;;6.15;4.03;;;31.40;59.70;;;;;;5059780;28;20055;-91